Rechercher aéroport 
image banner adimage banner adimage banner ad
image banner ad

1Q4 - New Jerusalem

Situé à Tracy, United States

ICAO - 1Q4, IATA -

Données fournies par Airmate  

Information générale

Coordonnées: N37°40'40" W121°18'4"
Élévation : 62 feet MSL.
Variation magnétique : 16° East
Voir autres Aéroports à California

Données opérationnelles

Special qualification required
Heure actuelle UTC:
Heure actuelle locale:
Météo à : KTCY - Tracy Muni ( 12 km )
METAR: KTCY 210115Z AUTO 01003KT 10SM CLR 29/05 A2992 RMK A01
Voir NOTAMs / SUP AIP / TFR affectant cet aéroport [VIEW]
Fréquences de communication: [VIEW]

Pistes:

Identifiant RWYQFULongueur (ft)Largeur (ft)SurfaceLDA (ft)
12353060ASPH
30353060ASPH

Coordonnées de l'aéroport

Adresse: Tracy United States

Vue satellite de 1Q4